Airfield :
LOGIN :

Register | Disclaimer

   EN    FR    IT 

 










Legend :    VFR   Marginal VFR   IFR   Intensive IFR   Very Intensive IFR
Visi :
Ceiling :
>= 8 km
>= 3000ft
5 to 8 km
1000 to 3000 ft
1500m to 5 km
500 to 1000 ft
800 to 1500m
200 to 500 ft
< 800m
< 200 ft
Symbols :   Thunderstorms  Fog  Heavy snow  Heavy precipitations  Wind > 20 kt
SIGMETs :     Misc.  Thunderstorms  Icing  Turbulence  Mountain Waves  Volcanic Ashes






- Airport Elevation : 13 ft
- IATA code : OST


EBOS - Oostend bruges Int.

CURRENT METAR :
  • 290620Z 22010KT 9999 FEW009 14/13 Q1010 NOSIG

EXPIRED METARs :
  • 290550Z 22012KT 9999 FEW012 14/13 Q1010 NOSIG
  • 290520Z 22010KT 9999 SCT011 14/13 Q1010 NOSIG
  • 290450Z 23009KT 9999 SCT011 14/13 Q1010 NOSIG
  • 290420Z 23010KT 9999 SCT011 SCT030 14/13 Q1010 TEMPO BKN012
  • 290350Z 24013KT 9000 -RA BKN008 BKN030 14/13 Q1010 TEMPO 4000 SHRA BKN012
  • 290320Z 24017KT 9999 -DZ BKN008 14/13 Q1010 RERA TEMPO 4000 SHRA BKN012TCU
  • 290250Z 24013KT 3400 DZRA BKN006 14/13 Q1010 TEMPO 8000 NSW
  • 290220Z 23012KT 3600 DZRA BR OVC006 14/13 Q1010 TEMPO 8000 NSW
  • 290150Z 23015KT 9000 -DZ OVC008 14/13 Q1010 TEMPO 4000 RADZ

TAF TAF EBOS
Valid from the 29 at 06:00 until the 30 at 12:00 UTC


290520Z 2906/3012 24012KT 9999 SCT020
PROB30
TEMPO 2906/2907 BKN014
BECMG 3008/3010 30012KT
PROB30
TEMPO 3009/3012 4000 SHRA BKN014TCU



MET'MAP, your aeronautical weather chart ! - Copyright ORBIFLY December 2007 - Disclaimer

ORBIFLY MET'MAP TEAM :

Programming & Development : Alexandra Zaïnal
Original concept : Baudouin d'Aumeries
Technical & hardware support : Manuel Goepfert
Assistance : Marc-Olivier Méhu




SOURCES & CREDITS :

   NOAA